Roche Harbor, Washington
Current Conditions -  °F | °C
As of 9:42 PM on Wednesday 26 Nov 2014 (Local Time) from KFHR Reporting Station
Overcast Overcast  
Wind Chill: 11°   Ceiling: 9000
Heat Index: 11°   Visibility: 10mi
Dew Point: 10°   Wind: 6mph
Humidity: 93%   Direction: 100°E
Pressure: 29.8"   Gusts: NA
Location:  48.5377°N, 123.083°W
Report Text: KFHR 270542Z AUTO 10005KT 10SM FEW014 OVC090 11/10 A2980 RMK AO2 RAE0458 P0000 T01110100
Loading
Personal Weather Stations






























Interactive Weather Map New forecast layout! Learn more

10-Day Weather Forecast

Advertisements
Track Severe Weather on mobile